Spurfield, Canada
Current Conditions -  °F | °C
As of 10:00 PM on Wednesday 22 Oct 2014 (Local Time) from CYZH Reporting Station
Broken Clouds Broken Clouds  
Wind Chill: 38°   Ceiling: 13000
Heat Index: 41°   Visibility: 9mi
Dew Point: 34°   Wind: 5mph
Humidity: 76%   Direction: 110°ESE
Pressure: 29.55"   Gusts: NA
Location:  55.23°N, 114.25°W
Report Text: CYZH 230400Z AUTO 11004KT 9SM BKN130 BKN250 05/01 A2955 RMK SLP027
Loading
Personal Weather Stations






























Interactive Weather Map
Tropical Storm Tracking
New forecast layout! Learn more

10-Day Weather Forecast

Advertisements
Track Severe Weather on mobile